createdAt,value
2017-10-05T00:01:08.470Z,1005.46
2017-10-05T00:02:20.953Z,1005.47
2017-10-05T00:03:33.448Z,1005.38
2017-10-05T00:04:45.926Z,1005.33
2017-10-05T00:05:58.404Z,1005.37
2017-10-05T00:07:10.893Z,1005.4
2017-10-05T00:08:23.413Z,1005.45
2017-10-05T00:09:35.602Z,1005.33
2017-10-05T00:10:47.779Z,1005.33
2017-10-05T00:12:00.269Z,1005.25
2017-10-05T00:13:12.463Z,1005.28
2017-10-05T00:14:24.941Z,1005.38
2017-10-05T00:15:36.805Z,1005.35
2017-10-05T00:16:48.063Z,1005.32
2017-10-05T00:18:00.246Z,1005.36
2017-10-05T00:19:12.441Z,1005.32
2017-10-05T00:20:25.161Z,1005.2
2017-10-05T00:21:37.366Z,1005.2
2017-10-05T00:22:49.561Z,1005.23
2017-10-05T00:24:02.048Z,1005.19
2017-10-05T00:25:14.220Z,1005.18
2017-10-05T00:26:26.715Z,1005.19
2017-10-05T00:27:39.186Z,1005.16
2017-10-05T00:28:51.356Z,1005.19
2017-10-05T00:30:03.566Z,1005.14
2017-10-05T00:31:16.056Z,1005.14
2017-10-05T00:32:28.252Z,1005.17
2017-10-05T00:33:40.751Z,1005.17
2017-10-05T00:34:53.243Z,1005.07
2017-10-05T00:36:05.432Z,1005.06
2017-10-05T00:37:17.615Z,1005.02
2017-10-05T00:38:30.105Z,1005.01
2017-10-05T00:39:42.267Z,1005.07
2017-10-05T00:40:54.138Z,1005.04
2017-10-05T00:42:06.859Z,1005.07
2017-10-05T00:43:19.038Z,1004.96
2017-10-05T00:44:31.225Z,1005
2017-10-05T00:45:43.421Z,1004.92
2017-10-05T00:46:55.625Z,1005.01
2017-10-05T00:48:07.512Z,1005.01
2017-10-05T00:49:19.408Z,1005.01
2017-10-05T00:50:31.603Z,1005.01
2017-10-05T00:51:44.082Z,1005
2017-10-05T00:52:56.569Z,1005.02
2017-10-05T00:54:09.040Z,1005.1
2017-10-05T00:55:21.236Z,1005.07
2017-10-05T00:56:32.806Z,1005.06
2017-10-05T00:57:45.029Z,1005.06
2017-10-05T00:58:56.887Z,1005.05
2017-10-05T01:00:08.769Z,1005.05
2017-10-05T01:01:20.646Z,1005.09
2017-10-05T01:02:32.510Z,1005.04
2017-10-05T01:03:44.681Z,1004.96
2017-10-05T01:04:56.851Z,1004.92
2017-10-05T01:06:09.352Z,1004.82
2017-10-05T01:07:21.825Z,1004.76
2017-10-05T01:08:34.013Z,1004.75
2017-10-05T01:09:45.873Z,1004.68
2017-10-05T01:10:58.354Z,1004.72
2017-10-05T01:12:10.527Z,1004.66
2017-10-05T01:13:22.996Z,1004.6
2017-10-05T01:14:35.169Z,1004.62
2017-10-05T01:15:47.670Z,1004.53
2017-10-05T01:17:00.157Z,1004.48
2017-10-05T01:18:12.353Z,1004.52
2017-10-05T01:19:24.557Z,1004.48
2017-10-05T01:20:36.406Z,1004.41
2017-10-05T01:21:48.890Z,1004.37
2017-10-05T01:23:01.387Z,1004.3
2017-10-05T01:24:13.858Z,1004.36
2017-10-05T01:25:26.028Z,1004.4
2017-10-05T01:26:38.198Z,1004.38
2017-10-05T01:27:50.669Z,1004.28
2017-10-05T01:29:03.140Z,1004.22
2017-10-05T01:30:15.618Z,1004.08
2017-10-05T01:31:28.360Z,1004.11
2017-10-05T01:32:40.851Z,1004.11
2017-10-05T01:33:53.328Z,1004.09
2017-10-05T01:35:05.506Z,1004.03
2017-10-05T01:36:17.989Z,1004.01
2017-10-05T01:37:30.159Z,1003.94
2017-10-05T01:38:42.666Z,1003.95
2017-10-05T01:39:55.157Z,1004.03
2017-10-05T01:41:07.645Z,1003.99
2017-10-05T01:42:19.519Z,1003.88
2017-10-05T01:43:31.687Z,1003.86
2017-10-05T01:44:43.858Z,1003.83
2017-10-05T01:45:56.354Z,1003.83
2017-10-05T01:47:08.782Z,1003.94
2017-10-05T01:48:20.957Z,1003.76
2017-10-05T01:49:32.541Z,1003.77
2017-10-05T01:50:45.013Z,1003.75
2017-10-05T01:51:57.182Z,1003.75
2017-10-05T01:53:09.677Z,1003.78
2017-10-05T01:54:21.873Z,1003.74
2017-10-05T01:55:34.357Z,1003.69
2017-10-05T01:56:46.539Z,1003.71
2017-10-05T01:57:58.710Z,1003.72
2017-10-05T01:59:11.213Z,1003.8
2017-10-05T02:00:23.704Z,1003.83
2017-10-05T02:01:36.171Z,1003.86
2017-10-05T02:02:48.342Z,1003.82
2017-10-05T02:04:00.524Z,1003.67
2017-10-05T02:05:12.710Z,1003.48
2017-10-05T02:06:24.588Z,1003.48
2017-10-05T02:07:36.776Z,1003.6
2017-10-05T02:08:48.654Z,1003.67
2017-10-05T02:10:00.529Z,1003.66
2017-10-05T02:11:12.113Z,1003.59
2017-10-05T02:12:23.993Z,1003.55
2017-10-05T02:13:36.178Z,1003.53
2017-10-05T02:14:48.649Z,1003.43
2017-10-05T02:16:00.820Z,1003.39
2017-10-05T02:17:12.697Z,1003.42
2017-10-05T02:18:25.194Z,1003.54
2017-10-05T02:19:37.632Z,1003.58
2017-10-05T02:20:49.811Z,1003.48
2017-10-05T02:22:01.998Z,1003.41
2017-10-05T02:23:14.476Z,1003.38
2017-10-05T02:24:26.640Z,1003.27
2017-10-05T02:25:38.818Z,1003.25
2017-10-05T02:26:51.031Z,1003.35
2017-10-05T02:28:03.527Z,1003.35
2017-10-05T02:29:15.697Z,1003.37
2017-10-05T02:30:28.188Z,1003.42
2017-10-05T02:31:40.699Z,1003.31
2017-10-05T02:32:53.185Z,1003.22
2017-10-05T02:34:05.381Z,1003.27
2017-10-05T02:35:17.240Z,1003.28
2017-10-05T02:36:29.121Z,1003.3
2017-10-05T02:37:41.600Z,1003.29
2017-10-05T02:38:53.463Z,1003.33
2017-10-05T02:40:05.641Z,1003.32
2017-10-05T02:41:17.836Z,1003.2
2017-10-05T02:42:30.008Z,1003.2
2017-10-05T02:43:41.903Z,1003.28
2017-10-05T02:44:54.399Z,1003.28
2017-10-05T02:46:06.569Z,1003.18
2017-10-05T02:47:18.440Z,1003.19
2017-10-05T02:48:30.628Z,1003.21
2017-10-05T02:49:43.107Z,1003.22
2017-10-05T02:50:55.294Z,1003.22
2017-10-05T02:52:07.766Z,1003.15
2017-10-05T02:53:20.242Z,1003.15
2017-10-05T02:54:32.418Z,1003.03
2017-10-05T02:55:44.909Z,1003.08
2017-10-05T02:56:57.405Z,1002.98
2017-10-05T02:58:09.893Z,1002.92
2017-10-05T02:59:22.088Z,1002.95
2017-10-05T03:00:34.560Z,1002.88
2017-10-05T03:01:46.129Z,1002.81
2017-10-05T03:02:58.311Z,1002.88
2017-10-05T03:04:10.797Z,1002.8
2017-10-05T03:05:23.001Z,1002.85
2017-10-05T03:06:35.496Z,1002.8
2017-10-05T03:07:47.991Z,1002.84
2017-10-05T03:09:00.486Z,1002.74
2017-10-05T03:10:12.974Z,1002.78
2017-10-05T03:11:25.444Z,1002.79
2017-10-05T03:12:37.629Z,1002.71
2017-10-05T03:13:50.361Z,1002.69
2017-10-05T03:15:02.832Z,1002.6
2017-10-05T03:16:14.413Z,1002.7
2017-10-05T03:17:26.273Z,1002.65
2017-10-05T03:18:38.750Z,1002.64
2017-10-05T03:19:50.940Z,1002.68
2017-10-05T03:21:02.815Z,1002.61
2017-10-05T03:22:15.006Z,1002.65
2017-10-05T03:23:27.476Z,1002.64
2017-10-05T03:24:39.896Z,1002.55
2017-10-05T03:25:51.468Z,1002.49
2017-10-05T03:27:03.663Z,1002.43
2017-10-05T03:28:15.859Z,1002.49
2017-10-05T03:29:28.337Z,1002.38
2017-10-05T03:30:40.828Z,1002.41
2017-10-05T03:31:52.722Z,1002.38
2017-10-05T03:33:05.200Z,1002.33
2017-10-05T03:34:17.370Z,1002.29
2017-10-05T03:35:29.558Z,1002.32
2017-10-05T03:36:42.029Z,1002.21
2017-10-05T03:37:54.225Z,1002.15
2017-10-05T03:39:06.723Z,1002.17
2017-10-05T03:40:19.190Z,1002.15
2017-10-05T03:41:30.761Z,1002.19
2017-10-05T03:42:43.257Z,1002.15
2017-10-05T03:43:55.728Z,1002.08
2017-10-05T03:45:08.231Z,1002.12
2017-10-05T03:46:20.719Z,1002.07
2017-10-05T03:47:32.277Z,1002.05
2017-10-05T03:48:44.761Z,1002.02
2017-10-05T03:49:56.939Z,1002.08
2017-10-05T03:51:09.133Z,1002.01
2017-10-05T03:52:21.311Z,1001.99
2017-10-05T03:53:33.793Z,1001.88
2017-10-05T03:54:45.977Z,1001.84
2017-10-05T03:55:58.459Z,1001.8
2017-10-05T03:57:10.330Z,1001.76
2017-10-05T03:58:22.509Z,1001.75
2017-10-05T03:59:34.379Z,1001.8
2017-10-05T04:00:46.566Z,1001.73
2017-10-05T04:01:58.737Z,1001.74
2017-10-05T04:03:10.908Z,1001.76
2017-10-05T04:04:23.378Z,1001.68
2017-10-05T04:05:35.558Z,1001.67
2017-10-05T04:06:48.045Z,1001.65
2017-10-05T04:08:00.228Z,1001.61
2017-10-05T04:09:12.722Z,1001.63
2017-10-05T04:10:24.594Z,1001.66
2017-10-05T04:11:36.813Z,1001.6
2017-10-05T04:12:48.998Z,1001.58
2017-10-05T04:14:01.169Z,1001.58
2017-10-05T04:15:13.050Z,1001.54
2017-10-05T04:16:25.536Z,1001.48
2017-10-05T04:17:37.717Z,1001.46
2017-10-05T04:18:49.927Z,1001.39
2017-10-05T04:20:02.097Z,1001.42
2017-10-05T04:21:14.576Z,1001.45
2017-10-05T04:22:26.739Z,1001.46
2017-10-05T04:23:39.209Z,1001.46
2017-10-05T04:24:51.082Z,1001.43
2017-10-05T04:26:03.276Z,1001.46
2017-10-05T04:27:15.446Z,1001.46
2017-10-05T04:28:27.629Z,1001.45
2017-10-05T04:29:39.846Z,1001.42
2017-10-05T04:30:52.343Z,1001.4
2017-10-05T04:32:04.215Z,1001.35
2017-10-05T04:33:16.399Z,1001.33
2017-10-05T04:34:28.903Z,1001.36
2017-10-05T04:35:41.390Z,1001.35
2017-10-05T04:36:53.261Z,1001.31
2017-10-05T04:38:05.756Z,1001.33
2017-10-05T04:39:17.927Z,1001.3
2017-10-05T04:40:30.348Z,1001.24
2017-10-05T04:41:42.219Z,1001.18
2017-10-05T04:42:54.100Z,1001.1
2017-10-05T04:44:06.592Z,1001.11
2017-10-05T04:45:18.145Z,1001.04
2017-10-05T04:46:30.327Z,1001.06
2017-10-05T04:47:42.497Z,1001.04
2017-10-05T04:48:54.718Z,1001.07
2017-10-05T04:50:06.914Z,1001.01
2017-10-05T04:51:19.409Z,1000.95
2017-10-05T04:52:31.280Z,1000.9
2017-10-05T04:53:43.476Z,1000.87
2017-10-05T04:54:55.648Z,1000.87
2017-10-05T04:56:07.843Z,1000.82
2017-10-05T04:57:20.020Z,1000.84
2017-10-05T04:58:32.216Z,1000.75
2017-10-05T04:59:44.703Z,1000.74
2017-10-05T05:00:57.175Z,1000.71
2017-10-05T05:02:09.355Z,1000.67
2017-10-05T05:03:21.840Z,1000.65
2017-10-05T05:04:33.733Z,1000.58
2017-10-05T05:05:45.608Z,1000.54
2017-10-05T05:06:58.078Z,1000.51
2017-10-05T05:08:10.553Z,1000.48
2017-10-05T05:09:22.771Z,1000.44
2017-10-05T05:10:35.274Z,1000.4
2017-10-05T05:11:47.767Z,1000.41
2017-10-05T05:13:00.194Z,1000.38
2017-10-05T05:14:12.085Z,1000.35
2017-10-05T05:15:24.572Z,1000.31
2017-10-05T05:16:36.752Z,1000.3
2017-10-05T05:17:48.615Z,1000.31
2017-10-05T05:19:01.109Z,1000.28
2017-10-05T05:20:13.280Z,1000.25
2017-10-05T05:21:25.462Z,1000.24
2017-10-05T05:22:37.948Z,1000.21
2017-10-05T05:23:50.077Z,1000.21
2017-10-05T05:25:02.248Z,1000.19
2017-10-05T05:26:14.433Z,1000.19
2017-10-05T05:27:26.904Z,1000.2
2017-10-05T05:28:39.375Z,1000.16
2017-10-05T05:29:51.545Z,1000.21
2017-10-05T05:31:03.703Z,1000.1
2017-10-05T05:32:16.186Z,1000.17
2017-10-05T05:33:28.668Z,1000.17
2017-10-05T05:34:41.153Z,1000.13
2017-10-05T05:35:53.324Z,1000.17
2017-10-05T05:37:05.793Z,1000.12
2017-10-05T05:38:17.965Z,1000.05
2017-10-05T05:39:30.460Z,1000.05
2017-10-05T05:40:42.656Z,1000.01
2017-10-05T05:41:54.827Z,999.98
2017-10-05T05:43:07.008Z,999.89
2017-10-05T05:44:19.493Z,999.93
2017-10-05T05:45:31.663Z,999.88
2017-10-05T05:46:44.145Z,999.82
2017-10-05T05:47:56.029Z,999.8
2017-10-05T05:49:08.502Z,999.84
2017-10-05T05:50:20.678Z,999.77
2017-10-05T05:51:33.166Z,999.73
2017-10-05T05:52:45.338Z,999.72
2017-10-05T05:53:57.497Z,999.69
2017-10-05T05:55:09.378Z,999.57
2017-10-05T05:56:21.849Z,999.56
2017-10-05T05:57:33.728Z,999.59
2017-10-05T05:58:45.916Z,999.62
2017-10-05T05:59:57.799Z,999.63
2017-10-05T06:01:10.339Z,999.54
2017-10-05T06:02:22.204Z,999.52
2017-10-05T06:03:34.381Z,999.5
2017-10-05T06:04:46.868Z,999.48
2017-10-05T06:05:59.041Z,999.5
2017-10-05T06:07:11.520Z,999.41
2017-10-05T06:08:24.006Z,999.38
2017-10-05T06:09:36.477Z,999.36
2017-10-05T06:10:48.047Z,999.31
2017-10-05T06:12:00.520Z,999.28
2017-10-05T06:13:13.014Z,999.32
2017-10-05T06:14:25.184Z,999.28
2017-10-05T06:15:37.055Z,999.26
2017-10-05T06:16:49.525Z,999.22
2017-10-05T06:18:01.429Z,999.14
2017-10-05T06:19:13.616Z,999.1
2017-10-05T06:20:25.521Z,999.07
2017-10-05T06:21:37.391Z,998.99
2017-10-05T06:22:49.567Z,998.94
2017-10-05T06:24:02.000Z,998.91
2017-10-05T06:25:14.470Z,998.93
2017-10-05T06:26:26.352Z,998.92
2017-10-05T06:27:38.521Z,998.91
2017-10-05T06:28:50.093Z,998.86
2017-10-05T06:30:02.579Z,998.83
2017-10-05T06:31:14.781Z,998.85
2017-10-05T06:32:26.969Z,998.82
2017-10-05T06:33:39.153Z,998.86
2017-10-05T06:34:51.338Z,998.87
2017-10-05T06:36:03.539Z,998.86
2017-10-05T06:37:15.427Z,998.87
2017-10-05T06:38:27.897Z,998.79
2017-10-05T06:39:40.369Z,998.83
2017-10-05T06:40:52.848Z,998.83
2017-10-05T06:42:05.034Z,998.86
2017-10-05T06:43:17.506Z,998.82
2017-10-05T06:44:29.685Z,998.71
2017-10-05T06:45:42.172Z,998.71
2017-10-05T06:46:54.330Z,998.77
2017-10-05T06:48:06.515Z,998.74
2017-10-05T06:49:18.709Z,998.67
2017-10-05T06:50:30.904Z,998.73
2017-10-05T06:51:42.764Z,998.71
2017-10-05T06:52:55.295Z,998.62
2017-10-05T06:54:07.766Z,998.68
2017-10-05T06:55:19.623Z,998.63
2017-10-05T06:56:31.507Z,998.64
2017-10-05T06:57:43.702Z,998.6
2017-10-05T06:58:55.899Z,998.65
2017-10-05T07:00:08.070Z,998.6
2017-10-05T07:01:20.552Z,998.61
2017-10-05T07:02:33.036Z,998.54
2017-10-05T07:03:45.532Z,998.55
2017-10-05T07:04:57.702Z,998.54
2017-10-05T07:06:09.561Z,998.47
2017-10-05T07:07:21.733Z,998.45
2017-10-05T07:08:33.914Z,998.45
2017-10-05T07:09:46.385Z,998.4
2017-10-05T07:10:58.565Z,998.41
2017-10-05T07:12:10.451Z,998.33
2017-10-05T07:13:22.929Z,998.32
2017-10-05T07:14:35.126Z,998.3
2017-10-05T07:15:47.301Z,998.26
2017-10-05T07:16:59.171Z,998.23
2017-10-05T07:18:11.354Z,998.12
2017-10-05T07:19:23.224Z,998.11
2017-10-05T07:20:35.721Z,998.06
2017-10-05T07:21:47.916Z,998.11
2017-10-05T07:23:00.369Z,998.06
2017-10-05T07:24:12.558Z,997.98
2017-10-05T07:25:24.431Z,997.98
2017-10-05T07:26:36.309Z,997.96
2017-10-05T07:27:48.476Z,997.92
2017-10-05T07:29:00.966Z,997.91
2017-10-05T07:30:12.836Z,997.89
2017-10-05T07:31:25.032Z,997.88
2017-10-05T07:32:36.886Z,997.91
2017-10-05T07:33:48.748Z,997.88
2017-10-05T07:35:00.908Z,997.8
2017-10-05T07:36:13.397Z,997.75
2017-10-05T07:37:25.869Z,997.75
2017-10-05T07:38:38.056Z,997.65
2017-10-05T07:39:49.638Z,997.62
2017-10-05T07:41:01.822Z,997.6
2017-10-05T07:42:13.993Z,997.57
2017-10-05T07:43:25.875Z,997.58
2017-10-05T07:44:38.084Z,997.56
2017-10-05T07:45:50.255Z,997.53
2017-10-05T07:47:02.454Z,997.51
2017-10-05T07:48:14.946Z,997.47
2017-10-05T07:49:27.417Z,997.4
2017-10-05T07:50:39.596Z,997.39
2017-10-05T07:51:52.083Z,997.43
2017-10-05T07:53:04.554Z,997.35
2017-10-05T07:54:16.749Z,997.3
2017-10-05T07:55:29.245Z,997.28
2017-10-05T07:56:41.115Z,997.28
2017-10-05T07:57:53.586Z,997.23
2017-10-05T07:59:05.470Z,997.18
2017-10-05T08:00:17.335Z,997.14
2017-10-05T08:01:29.201Z,997.11
2017-10-05T08:02:41.677Z,997.08
2017-10-05T08:03:53.573Z,997
2017-10-05T08:05:05.420Z,996.98
2017-10-05T08:06:17.913Z,996.93
2017-10-05T08:07:30.076Z,996.94
2017-10-05T08:08:42.547Z,996.94
2017-10-05T08:09:54.718Z,996.88
2017-10-05T08:11:06.896Z,996.85
2017-10-05T08:12:18.759Z,996.81
2017-10-05T08:13:30.963Z,996.72
2017-10-05T08:14:43.458Z,996.71
2017-10-05T08:15:55.953Z,996.74
2017-10-05T08:17:08.124Z,996.83
2017-10-05T08:18:20.297Z,996.75
2017-10-05T08:19:32.494Z,996.75
2017-10-05T08:20:44.679Z,996.65
2017-10-05T08:21:57.175Z,996.6
2017-10-05T08:23:09.396Z,996.58
2017-10-05T08:24:21.890Z,996.66
2017-10-05T08:25:33.761Z,996.59
2017-10-05T08:26:45.657Z,996.58
2017-10-05T08:27:57.815Z,996.56
2017-10-05T08:29:09.697Z,996.54
2017-10-05T08:30:21.595Z,996.52
2017-10-05T08:31:33.796Z,996.5
2017-10-05T08:32:45.660Z,996.49
2017-10-05T08:33:57.838Z,996.51
2017-10-05T08:35:09.701Z,996.5
2017-10-05T08:36:21.883Z,996.44
2017-10-05T08:37:34.369Z,996.28
2017-10-05T08:38:46.247Z,996.24
2017-10-05T08:39:58.734Z,996.18
2017-10-05T08:41:10.954Z,996.13
2017-10-05T08:42:23.436Z,996.11
2017-10-05T08:43:35.922Z,996.09
2017-10-05T08:44:48.092Z,996.04
2017-10-05T08:46:00.595Z,996.09
2017-10-05T08:47:12.473Z,996.08
2017-10-05T08:48:24.986Z,996.06
2017-10-05T08:49:36.235Z,995.99
2017-10-05T08:50:48.728Z,996.01
2017-10-05T08:52:00.905Z,995.96
2017-10-05T08:53:13.087Z,995.9
2017-10-05T08:54:25.257Z,995.88
2017-10-05T08:55:37.455Z,995.79
2017-10-05T08:56:49.648Z,995.73
2017-10-05T08:58:02.126Z,995.69
2017-10-05T08:59:14.599Z,995.64
2017-10-05T09:00:26.099Z,995.52
2017-10-05T09:01:38.289Z,995.51
2017-10-05T09:02:50.777Z,995.5
2017-10-05T09:04:02.956Z,995.5
2017-10-05T09:05:15.151Z,995.47
2017-10-05T09:06:27.338Z,995.43
2017-10-05T09:07:39.810Z,995.34
2017-10-05T09:08:52.031Z,995.3
2017-10-05T09:10:03.907Z,995.28
2017-10-05T09:11:16.096Z,995.28
2017-10-05T09:12:28.275Z,995.19
2017-10-05T09:13:40.770Z,995.16
2017-10-05T09:14:53.266Z,995.12
2017-10-05T09:16:05.739Z,995.05
2017-10-05T09:17:17.911Z,994.96
2017-10-05T09:18:30.103Z,995
2017-10-05T09:19:41.991Z,994.91
2017-10-05T09:20:53.869Z,994.93
2017-10-05T09:22:05.739Z,994.81
2017-10-05T09:23:17.903Z,994.73
2017-10-05T09:24:30.374Z,994.59
2017-10-05T09:25:42.277Z,994.51
2017-10-05T09:26:54.165Z,994.31
2017-10-05T09:28:06.636Z,994.36
2017-10-05T09:29:18.531Z,994.45
2017-10-05T09:30:30.687Z,994.4
2017-10-05T09:31:42.872Z,994.36
2017-10-05T09:32:54.793Z,994.32
2017-10-05T09:34:06.964Z,994.3
2017-10-05T09:35:19.459Z,994.34
2017-10-05T09:36:31.330Z,994.29
2017-10-05T09:37:43.521Z,994.24
2017-10-05T09:38:56.022Z,994.21
2017-10-05T09:40:08.500Z,994.17
2017-10-05T09:41:20.995Z,994.11
2017-10-05T09:42:32.866Z,994.02
2017-10-05T09:43:45.354Z,993.93
2017-10-05T09:44:57.539Z,993.85
2017-10-05T09:46:10.028Z,993.71
2017-10-05T09:47:22.502Z,993.76
2017-10-05T09:48:34.373Z,993.77
2017-10-05T09:49:46.858Z,993.74
2017-10-05T09:50:59.353Z,993.78
2017-10-05T09:52:11.232Z,993.76
2017-10-05T09:53:23.419Z,993.6
2017-10-05T09:54:35.291Z,993.58
2017-10-05T09:55:47.175Z,993.53
2017-10-05T09:56:59.344Z,993.57
2017-10-05T09:58:11.515Z,993.6
2017-10-05T09:59:23.406Z,993.56
2017-10-05T10:00:35.594Z,993.51
2017-10-05T10:01:46.864Z,993.43
2017-10-05T10:02:59.367Z,993.39
2017-10-05T10:04:10.943Z,993.41
2017-10-05T10:05:23.426Z,993.43
2017-10-05T10:06:35.605Z,993.38
2017-10-05T10:07:47.468Z,993.37
2017-10-05T10:08:59.639Z,993.33
2017-10-05T10:10:11.209Z,993.33
2017-10-05T10:11:23.092Z,993.25
2017-10-05T10:12:34.983Z,993.13
2017-10-05T10:13:47.471Z,993.07
2017-10-05T10:14:59.341Z,992.96
2017-10-05T10:16:11.546Z,992.93
2017-10-05T10:17:23.397Z,992.96
2017-10-05T10:18:35.587Z,992.81
2017-10-05T10:19:47.457Z,992.59
2017-10-05T10:20:59.686Z,992.61
2017-10-05T10:22:11.874Z,992.71
2017-10-05T10:23:24.061Z,992.65
2017-10-05T10:24:36.532Z,992.6
2017-10-05T10:25:49.027Z,992.51
2017-10-05T10:27:01.199Z,992.49
2017-10-05T10:28:13.377Z,992.49
2017-10-05T10:29:25.864Z,992.43
2017-10-05T10:30:38.043Z,992.36
2017-10-05T10:31:50.242Z,992.35
2017-10-05T10:33:02.115Z,992.29
2017-10-05T10:34:14.597Z,992.26
2017-10-05T10:35:26.471Z,992.2
2017-10-05T10:36:38.939Z,992.18
2017-10-05T10:37:51.370Z,992.15
2017-10-05T10:39:03.854Z,992.05
2017-10-05T10:40:16.050Z,992.02
2017-10-05T10:41:28.234Z,992.01
2017-10-05T10:42:40.442Z,991.95
2017-10-05T10:43:52.937Z,991.93
2017-10-05T10:45:04.808Z,991.78
2017-10-05T10:46:16.687Z,991.75
2017-10-05T10:47:28.875Z,991.66
2017-10-05T10:48:40.745Z,991.7
2017-10-05T10:49:52.941Z,991.64
2017-10-05T10:51:05.112Z,991.68
2017-10-05T10:52:17.618Z,991.59
2017-10-05T10:53:29.803Z,991.47
2017-10-05T10:54:41.674Z,991.47
2017-10-05T10:55:53.857Z,991.47
2017-10-05T10:57:06.340Z,991.45
2017-10-05T10:58:18.536Z,991.35
2017-10-05T10:59:30.706Z,991.29
2017-10-05T11:00:43.184Z,991.2
2017-10-05T11:01:55.355Z,991.29
2017-10-05T11:03:07.217Z,991.19
2017-10-05T11:04:19.688Z,991.17
2017-10-05T11:05:32.184Z,991.05
2017-10-05T11:06:44.354Z,991.02
2017-10-05T11:07:56.212Z,991.08
2017-10-05T11:09:08.096Z,990.99
2017-10-05T11:10:20.266Z,990.92
2017-10-05T11:11:32.745Z,990.86
2017-10-05T11:12:45.219Z,990.75
2017-10-05T11:13:57.403Z,990.77
2017-10-05T11:15:09.283Z,990.79
2017-10-05T11:16:21.770Z,990.63
2017-10-05T11:17:33.647Z,990.61
2017-10-05T11:18:45.511Z,990.58
2017-10-05T11:19:57.994Z,990.6
2017-10-05T11:21:10.114Z,990.55
2017-10-05T11:22:22.306Z,990.49
2017-10-05T11:23:34.468Z,990.38
2017-10-05T11:24:46.339Z,990.38
2017-10-05T11:25:58.810Z,990.29
2017-10-05T11:27:11.031Z,990.33
2017-10-05T11:28:22.901Z,990.21
2017-10-05T11:29:34.773Z,990.21
2017-10-05T11:30:46.975Z,990.14
2017-10-05T11:31:59.170Z,990.09
2017-10-05T11:33:11.042Z,990.03
2017-10-05T11:34:23.530Z,989.97
2017-10-05T11:35:35.412Z,989.96
2017-10-05T11:36:47.296Z,989.96
2017-10-05T11:37:59.466Z,989.96
2017-10-05T11:39:11.038Z,989.98
2017-10-05T11:40:23.519Z,989.85
2017-10-05T11:41:35.704Z,989.89
2017-10-05T11:42:47.899Z,989.74
2017-10-05T11:43:59.470Z,989.76
2017-10-05T11:45:11.341Z,989.66
2017-10-05T11:46:23.204Z,989.5
2017-10-05T11:47:35.682Z,989.52
2017-10-05T11:48:47.861Z,989.4
2017-10-05T11:50:00.356Z,989.38
2017-10-05T11:51:12.519Z,989.34
2017-10-05T11:52:24.092Z,989.38
2017-10-05T11:53:36.285Z,989.42
2017-10-05T11:54:48.794Z,989.46
2017-10-05T11:56:00.685Z,989.47
2017-10-05T11:57:12.261Z,989.27
2017-10-05T11:58:24.501Z,989.25
2017-10-05T11:59:36.122Z,989.25
2017-10-05T12:00:47.998Z,989.3
2017-10-05T12:02:00.188Z,989.14
2017-10-05T12:03:12.686Z,989.03
2017-10-05T12:04:24.879Z,988.92
2017-10-05T12:05:37.074Z,988.98
2017-10-05T12:06:48.962Z,988.86
2017-10-05T12:08:00.893Z,988.84
2017-10-05T12:09:12.766Z,988.77
2017-10-05T12:10:24.658Z,988.69
2017-10-05T12:11:36.846Z,988.7
2017-10-05T12:12:49.048Z,988.6
2017-10-05T12:14:01.538Z,988.71
2017-10-05T12:15:14.033Z,988.73
2017-10-05T12:16:26.527Z,988.75
2017-10-05T12:17:38.730Z,988.58
2017-10-05T12:18:51.227Z,988.49
2017-10-05T12:20:03.723Z,988.5
2017-10-05T12:21:15.911Z,988.4
2017-10-05T12:22:28.090Z,988.34
2017-10-05T12:23:40.290Z,988.28
2017-10-05T12:24:52.781Z,988.29
2017-10-05T12:26:05.276Z,988.26
2017-10-05T12:27:17.475Z,988.33
2017-10-05T12:28:29.660Z,988.29
2017-10-05T12:29:41.539Z,988.13
2017-10-05T12:30:53.726Z,988.09
2017-10-05T12:32:05.896Z,988.05
2017-10-05T12:33:18.075Z,988.06
2017-10-05T12:34:30.571Z,987.98
2017-10-05T12:35:42.769Z,987.91
2017-10-05T12:36:54.954Z,987.91
2017-10-05T12:38:06.813Z,987.76
2017-10-05T12:39:19.303Z,987.62
2017-10-05T12:40:31.799Z,987.6
2017-10-05T12:41:43.974Z,987.47
2017-10-05T12:42:56.162Z,987.36
2017-10-05T12:44:08.353Z,987.23
2017-10-05T12:45:20.224Z,987.23
2017-10-05T12:46:32.720Z,987.12
2017-10-05T12:47:44.915Z,987.1
2017-10-05T12:48:57.386Z,987.05
2017-10-05T12:50:09.864Z,987.01
2017-10-05T12:51:22.058Z,987.17
2017-10-05T12:52:34.548Z,986.94
2017-10-05T12:53:46.126Z,986.78
2017-10-05T12:54:58.303Z,986.5
2017-10-05T12:56:09.884Z,986.63
2017-10-05T12:57:21.456Z,986.45
2017-10-05T12:58:33.333Z,986.39
2017-10-05T12:59:45.522Z,986.38
2017-10-05T13:00:57.992Z,986.3
2017-10-05T13:02:09.888Z,986.14
2017-10-05T13:03:21.765Z,986.25
2017-10-05T13:04:33.316Z,986.12
2017-10-05T13:05:45.510Z,986.14
2017-10-05T13:06:57.996Z,986.04
2017-10-05T13:08:09.866Z,985.93
2017-10-05T13:09:22.042Z,985.93
2017-10-05T13:10:34.216Z,985.93
2017-10-05T13:11:46.712Z,985.94
2017-10-05T13:12:59.207Z,985.65
2017-10-05T13:14:11.370Z,985.65
2017-10-05T13:15:23.549Z,985.49
2017-10-05T13:16:36.060Z,985.39
2017-10-05T13:17:47.940Z,985.27
2017-10-05T13:19:00.110Z,985.31
2017-10-05T13:20:11.980Z,985.29
2017-10-05T13:21:24.201Z,985.3
2017-10-05T13:22:36.704Z,985.18
2017-10-05T13:23:49.234Z,985.1
2017-10-05T13:25:00.789Z,985.07
2017-10-05T13:26:12.359Z,984.98
2017-10-05T13:27:24.208Z,984.94
2017-10-05T13:28:36.693Z,984.83
2017-10-05T13:29:48.863Z,984.73
2017-10-05T13:31:00.758Z,984.68
2017-10-05T13:32:12.962Z,984.75
2017-10-05T13:33:25.458Z,984.63
2017-10-05T13:34:37.952Z,984.59
2017-10-05T13:35:49.842Z,984.57
2017-10-05T13:37:01.719Z,984.5
2017-10-05T13:38:14.216Z,984.5
2017-10-05T13:39:26.387Z,984.43
2017-10-05T13:40:38.882Z,984.24
2017-10-05T13:41:51.077Z,984.36
2017-10-05T13:43:03.565Z,984.39
2017-10-05T13:44:16.069Z,984.53
2017-10-05T13:45:27.667Z,984.49
2017-10-05T13:46:40.160Z,984.42
2017-10-05T13:47:52.573Z,984.32
2017-10-05T13:49:04.753Z,984.2
2017-10-05T13:50:17.278Z,984.1
2017-10-05T13:51:29.772Z,984.02
2017-10-05T13:52:41.680Z,983.84
2017-10-05T13:53:53.884Z,984.04
2017-10-05T13:55:06.080Z,984.08
2017-10-05T13:56:17.967Z,984.19
2017-10-05T13:57:30.139Z,984.18
2017-10-05T13:58:42.609Z,984.23
2017-10-05T13:59:54.487Z,984.64
2017-10-05T14:01:06.350Z,985.13
2017-10-05T14:02:18.260Z,985.01
2017-10-05T14:03:30.130Z,984.99
2017-10-05T14:04:42.320Z,985.43
2017-10-05T14:05:54.184Z,985.57
2017-10-05T14:07:06.379Z,985.04
2017-10-05T14:08:18.548Z,984.95
2017-10-05T14:09:30.720Z,984.76
2017-10-05T14:10:42.590Z,984.87
2017-10-05T14:11:55.099Z,985.21
2017-10-05T14:13:07.289Z,985.05
2017-10-05T14:14:19.777Z,984.62
2017-10-05T14:15:31.337Z,984.98
2017-10-05T14:16:43.828Z,985.12
2017-10-05T14:17:56.314Z,985.01
2017-10-05T14:19:08.485Z,985.23
2017-10-05T14:20:20.956Z,985.22
2017-10-05T14:21:33.151Z,985.25
2017-10-05T14:22:45.322Z,985.21
2017-10-05T14:23:57.492Z,985.48
2017-10-05T14:25:09.663Z,985.7
2017-10-05T14:26:22.158Z,985.5
2017-10-05T14:27:34.342Z,986.06
2017-10-05T14:28:45.925Z,986.24
2017-10-05T14:29:58.121Z,985.77
2017-10-05T14:31:10.017Z,986.23
2017-10-05T14:32:21.895Z,985.93
2017-10-05T14:33:33.791Z,986.25
2017-10-05T14:34:45.978Z,986.23
2017-10-05T14:35:58.150Z,986.71
2017-10-05T14:37:10.344Z,986.73
2017-10-05T14:38:22.540Z,986.87
2017-10-05T14:39:34.724Z,986.62
2017-10-05T14:40:46.913Z,986.81
2017-10-05T14:41:59.402Z,987.23
2017-10-05T14:43:10.981Z,987.4
2017-10-05T14:44:23.151Z,987.53
2017-10-05T14:45:35.348Z,987.66
2017-10-05T14:46:47.835Z,987.88
2017-10-05T14:48:00.306Z,988.09
2017-10-05T14:49:12.501Z,988.05
2017-10-05T14:50:24.360Z,987.9
2017-10-05T14:51:36.542Z,988.12
2017-10-05T14:52:49.038Z,988.18
2017-10-05T14:54:01.208Z,988.42